sensor_id;sensor_type;location;lat;lon;timestamp;P1;durP1;ratioP1;P2;durP2;ratioP2
23404;SDS011;11875;49.356;2.718;2023-04-25T00:02:05;3.13;;;2.73;;
23404;SDS011;11875;49.356;2.718;2023-04-25T00:04:31;3.63;;;2.93;;
23404;SDS011;11875;49.356;2.718;2023-04-25T00:06:58;3.53;;;2.37;;
23404;SDS011;11875;49.356;2.718;2023-04-25T00:09:26;5.53;;;2.53;;
23404;SDS011;11875;49.356;2.718;2023-04-25T00:11:52;3.47;;;1.83;;
23404;SDS011;11875;49.356;2.718;2023-04-25T00:14:18;2.20;;;1.87;;
23404;SDS011;11875;49.356;2.718;2023-04-25T00:16:44;6.37;;;2.80;;
23404;SDS011;11875;49.356;2.718;2023-04-25T00:19:09;3.53;;;2.20;;
23404;SDS011;11875;49.356;2.718;2023-04-25T00:21:35;2.60;;;2.00;;
23404;SDS011;11875;49.356;2.718;2023-04-25T00:24:02;3.40;;;2.50;;
23404;SDS011;11875;49.356;2.718;2023-04-25T00:26:28;3.27;;;2.40;;
23404;SDS011;11875;49.356;2.718;2023-04-25T00:28:54;4.13;;;2.50;;
23404;SDS011;11875;49.356;2.718;2023-04-25T00:31:19;2.60;;;2.10;;
23404;SDS011;11875;49.356;2.718;2023-04-25T00:33:45;3.33;;;2.40;;
23404;SDS011;11875;49.356;2.718;2023-04-25T00:36:10;4.93;;;2.70;;
23404;SDS011;11875;49.356;2.718;2023-04-25T00:38:36;4.03;;;2.63;;
23404;SDS011;11875;49.356;2.718;2023-04-25T00:41:03;3.43;;;2.83;;
23404;SDS011;11875;49.356;2.718;2023-04-25T00:43:31;5.10;;;2.50;;
23404;SDS011;11875;49.356;2.718;2023-04-25T00:45:57;3.27;;;2.50;;
23404;SDS011;11875;49.356;2.718;2023-04-25T00:48:25;5.93;;;2.30;;
23404;SDS011;11875;49.356;2.718;2023-04-25T00:50:52;3.53;;;2.93;;
23404;SDS011;11875;49.356;2.718;2023-04-25T00:53:20;3.27;;;2.97;;
23404;SDS011;11875;49.356;2.718;2023-04-25T00:55:46;7.33;;;3.50;;
23404;SDS011;11875;49.356;2.718;2023-04-25T00:58:12;10.00;;;3.80;;
23404;SDS011;11875;49.356;2.718;2023-04-25T01:00:39;4.50;;;3.60;;
23404;SDS011;11875;49.356;2.718;2023-04-25T01:03:06;3.83;;;3.40;;
23404;SDS011;11875;49.356;2.718;2023-04-25T01:05:32;9.57;;;4.33;;
23404;SDS011;11875;49.356;2.718;2023-04-25T01:07:57;5.13;;;4.37;;
23404;SDS011;11875;49.356;2.718;2023-04-25T01:10:23;5.17;;;4.57;;
23404;SDS011;11875;49.356;2.718;2023-04-25T01:12:49;5.67;;;4.90;;
23404;SDS011;11875;49.356;2.718;2023-04-25T01:15:15;6.73;;;5.30;;
23404;SDS011;11875;49.356;2.718;2023-04-25T01:17:41;7.93;;;5.80;;
23404;SDS011;11875;49.356;2.718;2023-04-25T01:20:07;6.53;;;5.10;;
23404;SDS011;11875;49.356;2.718;2023-04-25T01:22:34;7.13;;;5.50;;
23404;SDS011;11875;49.356;2.718;2023-04-25T01:25:00;7.93;;;5.13;;
23404;SDS011;11875;49.356;2.718;2023-04-25T01:27:27;6.30;;;5.00;;
23404;SDS011;11875;49.356;2.718;2023-04-25T01:29:54;6.40;;;5.40;;
23404;SDS011;11875;49.356;2.718;2023-04-25T01:32:21;7.10;;;4.83;;
23404;SDS011;11875;49.356;2.718;2023-04-25T01:34:47;7.57;;;5.37;;
23404;SDS011;11875;49.356;2.718;2023-04-25T01:37:13;11.77;;;7.10;;
23404;SDS011;11875;49.356;2.718;2023-04-25T01:39:39;10.23;;;7.60;;
23404;SDS011;11875;49.356;2.718;2023-04-25T01:42:04;9.87;;;7.63;;
23404;SDS011;11875;49.356;2.718;2023-04-25T01:44:30;9.77;;;8.23;;
23404;SDS011;11875;49.356;2.718;2023-04-25T01:46:55;10.43;;;7.67;;
23404;SDS011;11875;49.356;2.718;2023-04-25T01:49:21;11.57;;;8.47;;
23404;SDS011;11875;49.356;2.718;2023-04-25T01:51:47;11.50;;;8.73;;
23404;SDS011;11875;49.356;2.718;2023-04-25T01:54:12;11.37;;;8.10;;
23404;SDS011;11875;49.356;2.718;2023-04-25T01:56:39;11.40;;;7.80;;
23404;SDS011;11875;49.356;2.718;2023-04-25T01:59:05;9.20;;;6.87;;
23404;SDS011;11875;49.356;2.718;2023-04-25T02:01:31;12.20;;;7.40;;
23404;SDS011;11875;49.356;2.718;2023-04-25T02:03:57;11.50;;;7.97;;
23404;SDS011;11875;49.356;2.718;2023-04-25T02:06:23;11.37;;;8.13;;
23404;SDS011;11875;49.356;2.718;2023-04-25T02:08:48;14.33;;;8.97;;
23404;SDS011;11875;49.356;2.718;2023-04-25T02:11:14;15.43;;;9.43;;
23404;SDS011;11875;49.356;2.718;2023-04-25T02:13:39;16.87;;;9.80;;
23404;SDS011;11875;49.356;2.718;2023-04-25T02:16:05;15.83;;;9.87;;
23404;SDS011;11875;49.356;2.718;2023-04-25T02:18:31;13.93;;;9.43;;
23404;SDS011;11875;49.356;2.718;2023-04-25T02:20:58;20.83;;;10.77;;
23404;SDS011;11875;49.356;2.718;2023-04-25T02:23:24;19.30;;;10.07;;
23404;SDS011;11875;49.356;2.718;2023-04-25T02:25:50;15.00;;;9.63;;
23404;SDS011;11875;49.356;2.718;2023-04-25T02:28:16;14.73;;;9.00;;
23404;SDS011;11875;49.356;2.718;2023-04-25T02:30:42;12.70;;;8.37;;
23404;SDS011;11875;49.356;2.718;2023-04-25T02:33:07;13.67;;;8.83;;
23404;SDS011;11875;49.356;2.718;2023-04-25T02:35:33;12.87;;;8.40;;
23404;SDS011;11875;49.356;2.718;2023-04-25T02:37:59;14.23;;;8.13;;
23404;SDS011;11875;49.356;2.718;2023-04-25T02:40:24;14.73;;;8.37;;
23404;SDS011;11875;49.356;2.718;2023-04-25T02:42:50;12.37;;;8.60;;
23404;SDS011;11875;49.356;2.718;2023-04-25T02:45:16;11.10;;;8.23;;
23404;SDS011;11875;49.356;2.718;2023-04-25T02:47:42;15.87;;;9.60;;
23404;SDS011;11875;49.356;2.718;2023-04-25T02:50:07;14.93;;;9.53;;
23404;SDS011;11875;49.356;2.718;2023-04-25T02:52:33;14.10;;;9.27;;
23404;SDS011;11875;49.356;2.718;2023-04-25T02:54:59;17.77;;;9.50;;
23404;SDS011;11875;49.356;2.718;2023-04-25T02:57:24;17.27;;;9.53;;
23404;SDS011;11875;49.356;2.718;2023-04-25T02:59:50;16.40;;;9.67;;
23404;SDS011;11875;49.356;2.718;2023-04-25T03:02:15;12.37;;;8.60;;
23404;SDS011;11875;49.356;2.718;2023-04-25T03:04:41;13.83;;;8.77;;
23404;SDS011;11875;49.356;2.718;2023-04-25T03:07:07;13.33;;;9.17;;
23404;SDS011;11875;49.356;2.718;2023-04-25T03:09:32;11.57;;;8.80;;
23404;SDS011;11875;49.356;2.718;2023-04-25T03:11:58;12.97;;;9.13;;
23404;SDS011;11875;49.356;2.718;2023-04-25T03:14:24;14.77;;;9.53;;
23404;SDS011;11875;49.356;2.718;2023-04-25T03:16:49;12.87;;;9.20;;
23404;SDS011;11875;49.356;2.718;2023-04-25T03:19:15;13.60;;;8.93;;
23404;SDS011;11875;49.356;2.718;2023-04-25T03:21:42;13.17;;;9.73;;
23404;SDS011;11875;49.356;2.718;2023-04-25T03:24:08;14.20;;;9.07;;
23404;SDS011;11875;49.356;2.718;2023-04-25T03:26:35;14.77;;;8.83;;
23404;SDS011;11875;49.356;2.718;2023-04-25T03:29:01;13.13;;;8.47;;
23404;SDS011;11875;49.356;2.718;2023-04-25T03:31:27;12.90;;;8.13;;
23404;SDS011;11875;49.356;2.718;2023-04-25T03:33:52;9.73;;;7.50;;
23404;SDS011;11875;49.356;2.718;2023-04-25T03:36:18;11.37;;;7.93;;
23404;SDS011;11875;49.356;2.718;2023-04-25T03:38:44;12.40;;;8.23;;
23404;SDS011;11875;49.356;2.718;2023-04-25T03:41:09;11.43;;;8.00;;
23404;SDS011;11875;49.356;2.718;2023-04-25T03:43:35;12.70;;;7.33;;
23404;SDS011;11875;49.356;2.718;2023-04-25T03:46:00;11.57;;;8.07;;
23404;SDS011;11875;49.356;2.718;2023-04-25T03:48:26;11.70;;;8.03;;
23404;SDS011;11875;49.356;2.718;2023-04-25T03:50:52;12.40;;;8.33;;
23404;SDS011;11875;49.356;2.718;2023-04-25T03:53:18;9.43;;;7.20;;
23404;SDS011;11875;49.356;2.718;2023-04-25T03:55:44;11.70;;;7.50;;
23404;SDS011;11875;49.356;2.718;2023-04-25T03:58:10;9.53;;;6.63;;
23404;SDS011;11875;49.356;2.718;2023-04-25T04:00:35;10.23;;;7.30;;
23404;SDS011;11875;49.356;2.718;2023-04-25T04:03:01;10.73;;;7.30;;
23404;SDS011;11875;49.356;2.718;2023-04-25T04:05:27;9.50;;;7.13;;
23404;SDS011;11875;49.356;2.718;2023-04-25T04:07:53;9.23;;;7.13;;
23404;SDS011;11875;49.356;2.718;2023-04-25T04:10:19;9.50;;;7.13;;
23404;SDS011;11875;49.356;2.718;2023-04-25T04:12:45;10.13;;;7.23;;
23404;SDS011;11875;49.356;2.718;2023-04-25T04:15:10;11.63;;;7.83;;
23404;SDS011;11875;49.356;2.718;2023-04-25T04:17:36;11.17;;;7.53;;
23404;SDS011;11875;49.356;2.718;2023-04-25T04:20:02;9.47;;;6.10;;
23404;SDS011;11875;49.356;2.718;2023-04-25T04:22:28;9.87;;;5.77;;
23404;SDS011;11875;49.356;2.718;2023-04-25T04:24:54;5.73;;;3.97;;
23404;SDS011;11875;49.356;2.718;2023-04-25T04:27:22;7.33;;;5.07;;
23404;SDS011;11875;49.356;2.718;2023-04-25T04:29:48;7.20;;;4.43;;
23404;SDS011;11875;49.356;2.718;2023-04-25T04:32:14;7.00;;;4.63;;
23404;SDS011;11875;49.356;2.718;2023-04-25T04:34:40;5.93;;;4.37;;
23404;SDS011;11875;49.356;2.718;2023-04-25T04:37:06;9.50;;;5.20;;
23404;SDS011;11875;49.356;2.718;2023-04-25T04:39:32;9.53;;;5.80;;
23404;SDS011;11875;49.356;2.718;2023-04-25T04:41:59;10.73;;;7.07;;
23404;SDS011;11875;49.356;2.718;2023-04-25T04:44:26;9.07;;;7.13;;
23404;SDS011;11875;49.356;2.718;2023-04-25T04:46:53;9.37;;;6.93;;
23404;SDS011;11875;49.356;2.718;2023-04-25T04:49:19;13.23;;;7.47;;
23404;SDS011;11875;49.356;2.718;2023-04-25T04:51:45;10.00;;;7.57;;
23404;SDS011;11875;49.356;2.718;2023-04-25T04:54:10;9.63;;;7.10;;
23404;SDS011;11875;49.356;2.718;2023-04-25T04:56:36;8.03;;;6.37;;
23404;SDS011;11875;49.356;2.718;2023-04-25T04:59:01;8.40;;;5.73;;
23404;SDS011;11875;49.356;2.718;2023-04-25T05:01:27;7.77;;;5.47;;
23404;SDS011;11875;49.356;2.718;2023-04-25T05:03:55;9.93;;;5.13;;
23404;SDS011;11875;49.356;2.718;2023-04-25T05:06:25;9.33;;;5.60;;
23404;SDS011;11875;49.356;2.718;2023-04-25T05:08:51;10.07;;;6.20;;
23404;SDS011;11875;49.356;2.718;2023-04-25T05:11:18;10.10;;;5.43;;
23404;SDS011;11875;49.356;2.718;2023-04-25T05:13:44;6.73;;;5.07;;
23404;SDS011;11875;49.356;2.718;2023-04-25T05:16:10;7.47;;;4.80;;
23404;SDS011;11875;49.356;2.718;2023-04-25T05:18:36;7.77;;;5.77;;
23404;SDS011;11875;49.356;2.718;2023-04-25T05:21:02;10.60;;;5.87;;
23404;SDS011;11875;49.356;2.718;2023-04-25T05:23:27;8.30;;;5.70;;
23404;SDS011;11875;49.356;2.718;2023-04-25T05:25:55;10.17;;;6.73;;
23404;SDS011;11875;49.356;2.718;2023-04-25T05:28:20;11.83;;;7.30;;
23404;SDS011;11875;49.356;2.718;2023-04-25T05:30:46;13.10;;;8.20;;
23404;SDS011;11875;49.356;2.718;2023-04-25T05:33:12;14.23;;;9.27;;
23404;SDS011;11875;49.356;2.718;2023-04-25T05:35:37;15.77;;;9.20;;
23404;SDS011;11875;49.356;2.718;2023-04-25T05:38:03;21.97;;;10.23;;
23404;SDS011;11875;49.356;2.718;2023-04-25T05:40:28;17.17;;;9.77;;
23404;SDS011;11875;49.356;2.718;2023-04-25T05:42:54;17.47;;;10.17;;
23404;SDS011;11875;49.356;2.718;2023-04-25T05:45:20;21.20;;;11.23;;
23404;SDS011;11875;49.356;2.718;2023-04-25T05:47:45;21.30;;;10.60;;
23404;SDS011;11875;49.356;2.718;2023-04-25T05:50:11;21.93;;;10.50;;
23404;SDS011;11875;49.356;2.718;2023-04-25T05:52:36;19.13;;;10.17;;
23404;SDS011;11875;49.356;2.718;2023-04-25T05:55:02;22.23;;;10.33;;
23404;SDS011;11875;49.356;2.718;2023-04-25T05:57:28;21.17;;;10.23;;
23404;SDS011;11875;49.356;2.718;2023-04-25T05:59:53;23.73;;;10.47;;
23404;SDS011;11875;49.356;2.718;2023-04-25T06:02:19;23.47;;;10.17;;
23404;SDS011;11875;49.356;2.718;2023-04-25T06:04:51;17.30;;;9.20;;
23404;SDS011;11875;49.356;2.718;2023-04-25T06:07:17;24.63;;;10.30;;
23404;SDS011;11875;49.356;2.718;2023-04-25T06:09:43;26.13;;;9.50;;
23404;SDS011;11875;49.356;2.718;2023-04-25T06:12:09;21.63;;;9.90;;
23404;SDS011;11875;49.356;2.718;2023-04-25T06:14:35;21.37;;;10.17;;
23404;SDS011;11875;49.356;2.718;2023-04-25T06:17:00;18.87;;;9.00;;
23404;SDS011;11875;49.356;2.718;2023-04-25T06:19:31;19.87;;;9.17;;
23404;SDS011;11875;49.356;2.718;2023-04-25T06:21:57;24.37;;;9.90;;
23404;SDS011;11875;49.356;2.718;2023-04-25T06:24:23;22.20;;;9.93;;
23404;SDS011;11875;49.356;2.718;2023-04-25T06:26:49;20.47;;;8.53;;
23404;SDS011;11875;49.356;2.718;2023-04-25T06:29:14;22.23;;;8.83;;
23404;SDS011;11875;49.356;2.718;2023-04-25T06:31:40;21.77;;;9.27;;
23404;SDS011;11875;49.356;2.718;2023-04-25T06:34:06;18.73;;;8.10;;
23404;SDS011;11875;49.356;2.718;2023-04-25T06:36:31;19.70;;;8.70;;
23404;SDS011;11875;49.356;2.718;2023-04-25T06:38:57;21.87;;;8.60;;
23404;SDS011;11875;49.356;2.718;2023-04-25T06:41:22;18.17;;;8.30;;
23404;SDS011;11875;49.356;2.718;2023-04-25T06:43:48;22.53;;;8.37;;
23404;SDS011;11875;49.356;2.718;2023-04-25T06:46:13;20.13;;;9.37;;
23404;SDS011;11875;49.356;2.718;2023-04-25T06:48:39;20.00;;;7.43;;
23404;SDS011;11875;49.356;2.718;2023-04-25T06:51:05;16.57;;;8.20;;
23404;SDS011;11875;49.356;2.718;2023-04-25T06:53:30;15.77;;;8.07;;
23404;SDS011;11875;49.356;2.718;2023-04-25T06:55:56;17.27;;;7.97;;
23404;SDS011;11875;49.356;2.718;2023-04-25T06:58:21;23.10;;;7.40;;
23404;SDS011;11875;49.356;2.718;2023-04-25T07:00:47;14.33;;;7.13;;
23404;SDS011;11875;49.356;2.718;2023-04-25T07:03:13;17.57;;;7.87;;
23404;SDS011;11875;49.356;2.718;2023-04-25T07:05:38;19.60;;;6.80;;
23404;SDS011;11875;49.356;2.718;2023-04-25T07:08:04;14.20;;;5.70;;
23404;SDS011;11875;49.356;2.718;2023-04-25T07:10:30;17.10;;;6.13;;
23404;SDS011;11875;49.356;2.718;2023-04-25T07:12:55;14.60;;;6.00;;
23404;SDS011;11875;49.356;2.718;2023-04-25T07:15:21;16.87;;;5.93;;
23404;SDS011;11875;49.356;2.718;2023-04-25T07:17:46;19.80;;;6.73;;
23404;SDS011;11875;49.356;2.718;2023-04-25T07:20:12;20.37;;;6.30;;
23404;SDS011;11875;49.356;2.718;2023-04-25T07:22:38;15.90;;;6.53;;
23404;SDS011;11875;49.356;2.718;2023-04-25T07:25:03;12.80;;;6.20;;
23404;SDS011;11875;49.356;2.718;2023-04-25T07:27:30;16.37;;;6.37;;
23404;SDS011;11875;49.356;2.718;2023-04-25T07:29:56;16.90;;;7.00;;
23404;SDS011;11875;49.356;2.718;2023-04-25T07:32:22;16.17;;;7.00;;
23404;SDS011;11875;49.356;2.718;2023-04-25T07:34:48;14.57;;;6.90;;
23404;SDS011;11875;49.356;2.718;2023-04-25T07:37:14;11.60;;;7.13;;
23404;SDS011;11875;49.356;2.718;2023-04-25T07:39:40;18.80;;;7.13;;
23404;SDS011;11875;49.356;2.718;2023-04-25T07:42:05;15.43;;;6.77;;
23404;SDS011;11875;49.356;2.718;2023-04-25T07:44:33;20.57;;;6.90;;
23404;SDS011;11875;49.356;2.718;2023-04-25T07:47:06;14.93;;;6.67;;
23404;SDS011;11875;49.356;2.718;2023-04-25T07:49:33;20.33;;;7.10;;
23404;SDS011;11875;49.356;2.718;2023-04-25T07:51:59;12.00;;;5.77;;
23404;SDS011;11875;49.356;2.718;2023-04-25T07:54:25;19.60;;;6.77;;
23404;SDS011;11875;49.356;2.718;2023-04-25T07:56:51;20.30;;;6.03;;
23404;SDS011;11875;49.356;2.718;2023-04-25T07:59:16;16.77;;;5.93;;
23404;SDS011;11875;49.356;2.718;2023-04-25T08:01:42;13.83;;;6.13;;
23404;SDS011;11875;49.356;2.718;2023-04-25T08:04:08;14.93;;;6.70;;
23404;SDS011;11875;49.356;2.718;2023-04-25T08:06:33;13.53;;;6.07;;
23404;SDS011;11875;49.356;2.718;2023-04-25T08:08:59;14.30;;;6.30;;
23404;SDS011;11875;49.356;2.718;2023-04-25T08:11:25;16.60;;;6.20;;
23404;SDS011;11875;49.356;2.718;2023-04-25T08:13:51;17.93;;;7.03;;
23404;SDS011;11875;49.356;2.718;2023-04-25T08:16:16;13.10;;;5.50;;
23404;SDS011;11875;49.356;2.718;2023-04-25T08:18:42;16.47;;;5.10;;
23404;SDS011;11875;49.356;2.718;2023-04-25T08:21:07;17.70;;;5.23;;
23404;SDS011;11875;49.356;2.718;2023-04-25T08:23:36;10.40;;;4.20;;
23404;SDS011;11875;49.356;2.718;2023-04-25T08:26:02;12.50;;;4.90;;
23404;SDS011;11875;49.356;2.718;2023-04-25T08:28:28;9.77;;;4.27;;
23404;SDS011;11875;49.356;2.718;2023-04-25T08:30:54;14.27;;;4.57;;
23404;SDS011;11875;49.356;2.718;2023-04-25T08:33:19;9.97;;;4.37;;
23404;SDS011;11875;49.356;2.718;2023-04-25T08:35:45;10.27;;;4.17;;
23404;SDS011;11875;49.356;2.718;2023-04-25T08:38:10;10.17;;;4.23;;
23404;SDS011;11875;49.356;2.718;2023-04-25T08:40:37;15.60;;;4.83;;
23404;SDS011;11875;49.356;2.718;2023-04-25T08:43:03;11.43;;;4.63;;
23404;SDS011;11875;49.356;2.718;2023-04-25T08:45:36;12.93;;;4.87;;
23404;SDS011;11875;49.356;2.718;2023-04-25T08:48:05;15.43;;;4.60;;
23404;SDS011;11875;49.356;2.718;2023-04-25T08:50:36;12.07;;;4.70;;
23404;SDS011;11875;49.356;2.718;2023-04-25T08:53:08;11.43;;;4.60;;
23404;SDS011;11875;49.356;2.718;2023-04-25T08:55:38;17.20;;;5.07;;
23404;SDS011;11875;49.356;2.718;2023-04-25T08:58:07;12.10;;;5.13;;
23404;SDS011;11875;49.356;2.718;2023-04-25T09:00:35;11.30;;;5.30;;
23404;SDS011;11875;49.356;2.718;2023-04-25T09:03:00;16.70;;;5.93;;
23404;SDS011;11875;49.356;2.718;2023-04-25T09:05:27;20.47;;;6.03;;
23404;SDS011;11875;49.356;2.718;2023-04-25T09:07:53;12.03;;;5.60;;
23404;SDS011;11875;49.356;2.718;2023-04-25T09:10:19;15.23;;;4.90;;
23404;SDS011;11875;49.356;2.718;2023-04-25T09:12:45;12.93;;;5.77;;
23404;SDS011;11875;49.356;2.718;2023-04-25T09:15:31;15.20;;;5.90;;
23404;SDS011;11875;49.356;2.718;2023-04-25T09:17:57;13.33;;;5.50;;
23404;SDS011;11875;49.356;2.718;2023-04-25T09:20:23;15.07;;;5.10;;
23404;SDS011;11875;49.356;2.718;2023-04-25T09:22:50;17.60;;;5.53;;
23404;SDS011;11875;49.356;2.718;2023-04-25T09:25:27;13.83;;;5.80;;
23404;SDS011;11875;49.356;2.718;2023-04-25T09:28:04;11.37;;;5.50;;
23404;SDS011;11875;49.356;2.718;2023-04-25T09:30:32;21.93;;;6.00;;
23404;SDS011;11875;49.356;2.718;2023-04-25T09:33:09;12.63;;;5.50;;
23404;SDS011;11875;49.356;2.718;2023-04-25T09:35:39;16.83;;;5.67;;
23404;SDS011;11875;49.356;2.718;2023-04-25T09:38:08;13.80;;;5.83;;
23404;SDS011;11875;49.356;2.718;2023-04-25T09:40:38;14.13;;;5.63;;
23404;SDS011;11875;49.356;2.718;2023-04-25T09:43:08;12.17;;;4.30;;
23404;SDS011;11875;49.356;2.718;2023-04-25T09:45:44;9.90;;;4.43;;
23404;SDS011;11875;49.356;2.718;2023-04-25T09:48:11;14.03;;;5.23;;
23404;SDS011;11875;49.356;2.718;2023-04-25T09:50:38;14.60;;;5.17;;
23404;SDS011;11875;49.356;2.718;2023-04-25T09:53:04;13.60;;;4.63;;
23404;SDS011;11875;49.356;2.718;2023-04-25T09:55:31;11.63;;;4.63;;
23404;SDS011;11875;49.356;2.718;2023-04-25T09:58:00;11.40;;;5.43;;
23404;SDS011;11875;49.356;2.718;2023-04-25T10:00:30;15.63;;;4.37;;
23404;SDS011;11875;49.356;2.718;2023-04-25T10:02:58;13.03;;;5.53;;
23404;SDS011;11875;49.356;2.718;2023-04-25T10:05:29;10.43;;;4.75;;
23404;SDS011;11875;49.356;2.718;2023-04-25T10:07:57;13.87;;;4.90;;
23404;SDS011;11875;49.356;2.718;2023-04-25T10:10:26;9.50;;;4.70;;
23404;SDS011;11875;49.356;2.718;2023-04-25T10:12:55;13.93;;;5.07;;
23404;SDS011;11875;49.356;2.718;2023-04-25T10:15:21;14.70;;;4.90;;
23404;SDS011;11875;49.356;2.718;2023-04-25T10:17:48;8.73;;;5.53;;
23404;SDS011;11875;49.356;2.718;2023-04-25T10:20:15;10.30;;;5.30;;
23404;SDS011;11875;49.356;2.718;2023-04-25T10:22:41;12.23;;;5.53;;
23404;SDS011;11875;49.356;2.718;2023-04-25T10:25:09;11.90;;;4.97;;
23404;SDS011;11875;49.356;2.718;2023-04-25T10:27:36;12.00;;;4.57;;
23404;SDS011;11875;49.356;2.718;2023-04-25T10:30:09;9.07;;;4.80;;
23404;SDS011;11875;49.356;2.718;2023-04-25T10:32:39;14.47;;;6.03;;
23404;SDS011;11875;49.356;2.718;2023-04-25T10:35:10;13.63;;;5.43;;
23404;SDS011;11875;49.356;2.718;2023-04-25T10:37:37;12.90;;;5.03;;
23404;SDS011;11875;49.356;2.718;2023-04-25T10:40:09;12.63;;;5.10;;
23404;SDS011;11875;49.356;2.718;2023-04-25T10:42:36;12.90;;;5.50;;
23404;SDS011;11875;49.356;2.718;2023-04-25T10:45:02;14.37;;;4.77;;
23404;SDS011;11875;49.356;2.718;2023-04-25T10:47:36;12.77;;;5.70;;
23404;SDS011;11875;49.356;2.718;2023-04-25T10:50:08;15.67;;;5.10;;
23404;SDS011;11875;49.356;2.718;2023-04-25T10:52:34;11.73;;;4.93;;
23404;SDS011;11875;49.356;2.718;2023-04-25T10:54:59;11.40;;;5.17;;
23404;SDS011;11875;49.356;2.718;2023-04-25T10:57:41;12.30;;;4.80;;
23404;SDS011;11875;49.356;2.718;2023-04-25T11:05:10;12.63;;;4.73;;
23404;SDS011;11875;49.356;2.718;2023-04-25T11:07:53;14.87;;;4.73;;
23404;SDS011;11875;49.356;2.718;2023-04-25T11:10:24;14.47;;;5.17;;
23404;SDS011;11875;49.356;2.718;2023-04-25T11:12:52;9.50;;;5.00;;
23404;SDS011;11875;49.356;2.718;2023-04-25T11:15:17;12.97;;;5.50;;
23404;SDS011;11875;49.356;2.718;2023-04-25T11:17:43;13.30;;;5.47;;
23404;SDS011;11875;49.356;2.718;2023-04-25T11:20:11;13.30;;;5.57;;
23404;SDS011;11875;49.356;2.718;2023-04-25T11:22:39;7.90;;;4.97;;
23404;SDS011;11875;49.356;2.718;2023-04-25T11:25:06;12.20;;;4.97;;
23404;SDS011;11875;49.356;2.718;2023-04-25T11:27:33;18.33;;;5.43;;
23404;SDS011;11875;49.356;2.718;2023-04-25T11:30:09;8.77;;;4.93;;
23404;SDS011;11875;49.356;2.718;2023-04-25T11:32:39;12.67;;;4.87;;
23404;SDS011;11875;49.356;2.718;2023-04-25T11:35:06;10.47;;;4.40;;
23404;SDS011;11875;49.356;2.718;2023-04-25T11:37:32;11.77;;;4.50;;
23404;SDS011;11875;49.356;2.718;2023-04-25T11:39:59;13.33;;;4.53;;
23404;SDS011;11875;49.356;2.718;2023-04-25T11:42:25;10.77;;;4.67;;
23404;SDS011;11875;49.356;2.718;2023-04-25T11:44:51;12.07;;;4.50;;
23404;SDS011;11875;49.356;2.718;2023-04-25T11:47:16;7.93;;;4.00;;
23404;SDS011;11875;49.356;2.718;2023-04-25T11:49:42;10.67;;;4.13;;
23404;SDS011;11875;49.356;2.718;2023-04-25T11:52:08;9.80;;;4.47;;
23404;SDS011;11875;49.356;2.718;2023-04-25T11:54:37;14.00;;;3.70;;
23404;SDS011;11875;49.356;2.718;2023-04-25T11:57:03;7.83;;;3.90;;
23404;SDS011;11875;49.356;2.718;2023-04-25T11:59:29;13.23;;;3.83;;
23404;SDS011;11875;49.356;2.718;2023-04-25T12:01:55;14.83;;;4.03;;
23404;SDS011;11875;49.356;2.718;2023-04-25T12:04:23;8.87;;;4.23;;
23404;SDS011;11875;49.356;2.718;2023-04-25T12:06:51;8.57;;;4.33;;
23404;SDS011;11875;49.356;2.718;2023-04-25T12:09:21;9.45;;;4.38;;
23404;SDS011;11875;49.356;2.718;2023-04-25T12:11:54;12.98;;;4.22;;
23404;SDS011;11875;49.356;2.718;2023-04-25T12:14:28;10.75;;;5.15;;
23404;SDS011;11875;49.356;2.718;2023-04-25T12:16:56;13.35;;;4.05;;
23404;SDS011;11875;49.356;2.718;2023-04-25T12:19:23;10.38;;;4.60;;
23404;SDS011;11875;49.356;2.718;2023-04-25T12:21:49;7.00;;;3.58;;
23404;SDS011;11875;49.356;2.718;2023-04-25T12:24:16;10.20;;;3.63;;
23404;SDS011;11875;49.356;2.718;2023-04-25T12:27:05;9.73;;;3.53;;
23404;SDS011;11875;49.356;2.718;2023-04-25T12:29:33;8.00;;;3.50;;
23404;SDS011;11875;49.356;2.718;2023-04-25T12:31:59;8.90;;;3.90;;
23404;SDS011;11875;49.356;2.718;2023-04-25T12:34:26;8.90;;;3.57;;
23404;SDS011;11875;49.356;2.718;2023-04-25T12:36:52;6.60;;;3.10;;
23404;SDS011;11875;49.356;2.718;2023-04-25T12:39:23;9.45;;;3.35;;
23404;SDS011;11875;49.356;2.718;2023-04-25T12:41:50;8.30;;;3.28;;
23404;SDS011;11875;49.356;2.718;2023-04-25T12:44:18;11.90;;;3.53;;
23404;SDS011;11875;49.356;2.718;2023-04-25T12:46:44;9.23;;;3.28;;
23404;SDS011;11875;49.356;2.718;2023-04-25T12:49:10;9.27;;;3.20;;
23404;SDS011;11875;49.356;2.718;2023-04-25T12:51:36;4.68;;;2.80;;
23404;SDS011;11875;49.356;2.718;2023-04-25T12:54:03;11.45;;;3.47;;
23404;SDS011;11875;49.356;2.718;2023-04-25T12:56:31;10.25;;;3.25;;
23404;SDS011;11875;49.356;2.718;2023-04-25T12:58:57;11.65;;;3.72;;
23404;SDS011;11875;49.356;2.718;2023-04-25T13:01:23;9.85;;;3.05;;
23404;SDS011;11875;49.356;2.718;2023-04-25T13:03:49;12.73;;;3.13;;
23404;SDS011;11875;49.356;2.718;2023-04-25T13:06:16;8.00;;;2.83;;
23404;SDS011;11875;49.356;2.718;2023-04-25T13:08:42;10.20;;;3.22;;
23404;SDS011;11875;49.356;2.718;2023-04-25T13:11:08;10.27;;;3.40;;
23404;SDS011;11875;49.356;2.718;2023-04-25T13:13:34;9.45;;;3.63;;
23404;SDS011;11875;49.356;2.718;2023-04-25T13:16:00;13.18;;;3.40;;
23404;SDS011;11875;49.356;2.718;2023-04-25T13:18:27;4.97;;;2.70;;
23404;SDS011;11875;49.356;2.718;2023-04-25T13:20:56;9.43;;;2.72;;
23404;SDS011;11875;49.356;2.718;2023-04-25T13:23:24;8.30;;;2.53;;
23404;SDS011;11875;49.356;2.718;2023-04-25T13:25:51;6.47;;;2.38;;
23404;SDS011;11875;49.356;2.718;2023-04-25T13:28:17;8.15;;;3.00;;
23404;SDS011;11875;49.356;2.718;2023-04-25T13:30:43;9.98;;;3.15;;
23404;SDS011;11875;49.356;2.718;2023-04-25T13:33:09;7.13;;;2.53;;
23404;SDS011;11875;49.356;2.718;2023-04-25T13:35:35;7.78;;;2.63;;
23404;SDS011;11875;49.356;2.718;2023-04-25T13:38:02;7.75;;;3.20;;
23404;SDS011;11875;49.356;2.718;2023-04-25T13:40:28;13.40;;;3.05;;
23404;SDS011;11875;49.356;2.718;2023-04-25T13:42:54;7.75;;;3.03;;
23404;SDS011;11875;49.356;2.718;2023-04-25T13:45:20;8.02;;;2.83;;
23404;SDS011;11875;49.356;2.718;2023-04-25T13:47:46;6.28;;;2.50;;
23404;SDS011;11875;49.356;2.718;2023-04-25T13:50:11;5.38;;;2.67;;
23404;SDS011;11875;49.356;2.718;2023-04-25T13:52:38;7.03;;;3.08;;
23404;SDS011;11875;49.356;2.718;2023-04-25T13:55:04;5.75;;;2.83;;
23404;SDS011;11875;49.356;2.718;2023-04-25T13:57:32;5.13;;;2.88;;
23404;SDS011;11875;49.356;2.718;2023-04-25T13:59:58;11.70;;;3.30;;
23404;SDS011;11875;49.356;2.718;2023-04-25T14:02:24;9.20;;;3.40;;
23404;SDS011;11875;49.356;2.718;2023-04-25T14:04:50;11.98;;;2.78;;
23404;SDS011;11875;49.356;2.718;2023-04-25T14:07:16;5.53;;;2.72;;
23404;SDS011;11875;49.356;2.718;2023-04-25T14:09:43;9.07;;;3.60;;
23404;SDS011;11875;49.356;2.718;2023-04-25T14:12:09;12.65;;;3.33;;
23404;SDS011;11875;49.356;2.718;2023-04-25T14:14:36;10.85;;;4.78;;
23404;SDS011;11875;49.356;2.718;2023-04-25T14:17:02;10.05;;;3.03;;
23404;SDS011;11875;49.356;2.718;2023-04-25T14:19:28;12.00;;;3.25;;
23404;SDS011;11875;49.356;2.718;2023-04-25T14:21:54;9.25;;;3.47;;
23404;SDS011;11875;49.356;2.718;2023-04-25T14:24:20;8.18;;;3.40;;
23404;SDS011;11875;49.356;2.718;2023-04-25T14:26:45;9.10;;;3.17;;
23404;SDS011;11875;49.356;2.718;2023-04-25T14:29:11;8.43;;;3.25;;
23404;SDS011;11875;49.356;2.718;2023-04-25T14:31:37;8.57;;;3.40;;
23404;SDS011;11875;49.356;2.718;2023-04-25T14:34:04;8.27;;;3.00;;
23404;SDS011;11875;49.356;2.718;2023-04-25T14:36:31;5.82;;;3.20;;
23404;SDS011;11875;49.356;2.718;2023-04-25T14:38:57;8.68;;;3.20;;
23404;SDS011;11875;49.356;2.718;2023-04-25T14:41:24;10.52;;;3.30;;